Belville, North Carolina
Current Conditions -  °F | °C
As of 3:53 PM on Thursday 18 Dec 2014 (Local Time) from KILM Reporting Station
Clear Clear  
Wind Chill: 53°   Ceiling: Unl
Heat Index: 53°   Visibility: 10mi
Dew Point: 36°   Wind: 7mph
Humidity: 52%   Direction: 120°ESE
Pressure: 30.08"   Gusts: NA
Location:  34.2757°N, 78.1004°W
Report Text: KILM 182053Z 12006KT 10SM CLR 12/02 A3008 RMK AO2 SLP185 T01170022 56015
Loading
Personal Weather Stations






























Interactive Weather Map New forecast layout! Learn more

10-Day Weather Forecast

Advertisements
Track Severe Weather on mobile